Time;durP1;ratioP1;P1;durP2;ratioP2;P2;SDS_P1;SDS_P2;PMS_P1;PMS_P2;Temp;Humidity;BMP_temperature;BMP_pressure;BME280_temperature;BME280_humidity;BME280_pressure;Samples;Min_cycle;Max_cycle;Signal;HPM_P1;HPM_P2
2021/12/01 00:02:37;;;;;;;1.27;1.20;;;;;;;;;;8206679;28;20047;-72
2021/12/01 00:06:37;;;;;;;1.83;1.43;;;;;;;;;;8205866;28;20034;-72
2021/12/01 00:10:38;;;;;;;1.10;1.10;;;;;;;;;;8207875;28;20374;-71
2021/12/01 00:14:39;;;;;;;1.20;1.20;;;;;;;;;;8207857;28;20085;-72
2021/12/01 00:18:39;;;;;;;1.40;1.30;;;;;;;;;;8207913;28;20035;-72
2021/12/01 00:22:41;;;;;;;1.50;1.27;;;;;;;;;;8208489;28;20286;-72
2021/12/01 00:26:41;;;;;;;1.00;1.00;;;;;;;;;;8207109;28;20243;-72
2021/12/01 00:30:42;;;;;;;1.40;1.30;;;;;;;;;;8207052;28;20129;-72
2021/12/01 00:34:42;;;;;;;1.07;1.07;;;;;;;;;;8208099;28;20110;-72
2021/12/01 00:38:43;;;;;;;0.98;0.98;;;;;;;;;;8205979;28;20289;-72
2021/12/01 00:42:43;;;;;;;0.98;0.98;;;;;;;;;;8206390;28;21038;-72
2021/12/01 00:46:55;;;;;;;0.80;0.80;;;;;;;;;;8205773;28;20401;-72
2021/12/01 00:50:55;;;;;;;0.65;0.65;;;;;;;;;;8197835;28;20039;-72
2021/12/01 00:54:56;;;;;;;0.80;0.80;;;;;;;;;;8206719;28;20898;-73
2021/12/01 00:58:56;;;;;;;0.60;0.60;;;;;;;;;;8207448;28;20100;-72
2021/12/01 01:02:57;;;;;;;0.70;0.70;;;;;;;;;;8205477;28;20539;-72
2021/12/01 01:06:57;;;;;;;0.63;0.63;;;;;;;;;;8206003;28;20038;-72
2021/12/01 01:11:10;;;;;;;0.68;0.68;;;;;;;;;;8205747;28;20054;-72
2021/12/01 01:19:29;;;;;;;0.57;0.57;;;;;;;;;;8207520;28;20504;-72
2021/12/01 01:23:29;;;;;;;1.02;0.88;;;;;;;;;;8205289;28;20018;-72
2021/12/01 01:27:30;;;;;;;0.57;0.57;;;;;;;;;;8206921;28;20033;-71
2021/12/01 01:31:30;;;;;;;0.57;0.57;;;;;;;;;;8205678;28;20043;-72
2021/12/01 01:35:30;;;;;;;0.60;0.60;;;;;;;;;;8207110;28;20345;-72
2021/12/01 01:39:30;;;;;;;0.70;0.70;;;;;;;;;;8204489;28;20045;-72
2021/12/01 01:43:31;;;;;;;0.73;0.73;;;;;;;;;;8206003;28;20025;-72
2021/12/01 01:47:31;;;;;;;0.68;0.68;;;;;;;;;;8204795;28;20039;-71
2021/12/01 01:51:32;;;;;;;0.73;0.73;;;;;;;;;;8207112;28;20026;-72
2021/12/01 01:55:32;;;;;;;0.80;0.80;;;;;;;;;;8203411;28;20031;-72
2021/12/01 01:59:33;;;;;;;1.15;0.88;;;;;;;;;;8205426;28;20133;-72
2021/12/01 02:03:40;;;;;;;1.17;1.02;;;;;;;;;;8204940;28;20041;-72
2021/12/01 02:07:42;;;;;;;1.30;1.10;;;;;;;;;;8205055;28;20030;-72
2021/12/01 02:11:42;;;;;;;1.00;0.95;;;;;;;;;;8204494;28;20492;-72
2021/12/01 02:15:44;;;;;;;1.50;1.27;;;;;;;;;;8201897;28;20089;-72
2021/12/01 02:19:44;;;;;;;1.48;1.38;;;;;;;;;;8205451;28;20136;-72
2021/12/01 02:23:48;;;;;;;2.85;1.45;;;;;;;;;;8204744;28;20023;-72
2021/12/01 02:27:48;;;;;;;1.52;1.42;;;;;;;;;;8204860;28;20660;-72
2021/12/01 02:31:50;;;;;;;2.03;1.83;;;;;;;;;;8203016;28;20107;-72
2021/12/01 02:35:50;;;;;;;2.80;2.03;;;;;;;;;;8203931;28;20449;-72
2021/12/01 02:39:51;;;;;;;2.22;2.03;;;;;;;;;;8205878;28;20061;-72
2021/12/01 02:43:51;;;;;;;2.80;2.53;;;;;;;;;;8204383;28;20063;-72
2021/12/01 02:47:51;;;;;;;2.63;2.42;;;;;;;;;;8203101;28;20538;-72
2021/12/01 02:51:56;;;;;;;1.97;1.87;;;;;;;;;;8210040;28;20062;-72
2021/12/01 02:55:57;;;;;;;3.03;2.65;;;;;;;;;;8209367;28;20285;-72
2021/12/01 02:59:58;;;;;;;5.75;2.80;;;;;;;;;;8210849;28;20502;-72
2021/12/01 03:03:59;;;;;;;2.53;2.33;;;;;;;;;;8209092;28;20031;-72
2021/12/01 03:07:59;;;;;;;2.60;2.38;;;;;;;;;;8211683;28;20027;-72
2021/12/01 03:11:59;;;;;;;3.40;2.55;;;;;;;;;;8210614;28;20085;-72
2021/12/01 03:16:00;;;;;;;3.00;2.60;;;;;;;;;;8207181;28;20112;-72
2021/12/01 03:20:00;;;;;;;3.38;2.42;;;;;;;;;;8211564;28;20031;-72
2021/12/01 03:24:00;;;;;;;3.83;2.53;;;;;;;;;;8209276;28;20019;-73
2021/12/01 03:28:01;;;;;;;2.95;2.65;;;;;;;;;;8224832;28;20030;-73
2021/12/01 03:32:02;;;;;;;2.30;2.10;;;;;;;;;;8207424;28;20050;-72
2021/12/01 03:36:03;;;;;;;2.97;2.55;;;;;;;;;;8210591;28;20033;-72
2021/12/01 03:40:04;;;;;;;2.22;1.80;;;;;;;;;;8210863;28;20022;-73
2021/12/01 03:44:04;;;;;;;3.13;2.17;;;;;;;;;;8208894;28;20031;-72
2021/12/01 03:48:05;;;;;;;1.80;1.70;;;;;;;;;;8208686;28;20082;-73
2021/12/01 03:52:05;;;;;;;2.30;2.10;;;;;;;;;;8209960;28;20030;-72
2021/12/01 03:56:06;;;;;;;2.15;1.90;;;;;;;;;;8208883;28;20034;-72
2021/12/01 04:00:10;;;;;;;2.25;2.00;;;;;;;;;;8209522;28;20034;-72
2021/12/01 04:04:10;;;;;;;;;;;;;;;;;;8209725;28;20065;-72
2021/12/01 04:08:10;;;;;;;2.22;1.98;;;;;;;;;;8207983;28;19914;-72
2021/12/01 04:12:11;;;;;;;4.40;2.13;;;;;;;;;;8209706;28;20030;-72
2021/12/01 04:16:11;;;;;;;2.53;2.15;;;;;;;;;;8207962;28;20160;-72
2021/12/01 04:20:13;;;;;;;2.70;2.03;;;;;;;;;;8209909;28;20054;-72
2021/12/01 04:24:13;;;;;;;2.30;2.05;;;;;;;;;;8209027;28;20034;-72
2021/12/01 04:28:13;;;;;;;2.17;1.98;;;;;;;;;;8208786;28;20556;-72
2021/12/01 04:32:13;;;;;;;2.30;2.10;;;;;;;;;;8208512;28;20027;-72
2021/12/01 04:36:16;;;;;;;2.90;2.08;;;;;;;;;;8208352;28;20258;-72
2021/12/01 04:40:17;;;;;;;1.85;1.75;;;;;;;;;;8207797;28;20833;-72
2021/12/01 04:44:18;;;;;;;2.17;1.92;;;;;;;;;;8208332;28;20109;-72
2021/12/01 04:48:18;;;;;;;2.47;2.28;;;;;;;;;;8207047;28;20487;-72
2021/12/01 04:52:18;;;;;;;2.90;2.50;;;;;;;;;;8207999;28;20029;-72
2021/12/01 04:56:19;;;;;;;4.35;2.72;;;;;;;;;;8206491;28;20023;-72
2021/12/01 05:00:21;;;;;;;5.20;2.90;;;;;;;;;;8206100;28;20030;-72
2021/12/01 05:04:22;;;;;;;3.80;3.28;;;;;;;;;;8208135;28;20026;-72
2021/12/01 05:08:23;;;;;;;6.13;3.40;;;;;;;;;;8206647;28;20030;-72
2021/12/01 05:12:23;;;;;;;3.25;2.95;;;;;;;;;;8206517;28;20042;-72
2021/12/01 05:16:23;;;;;;;3.88;3.25;;;;;;;;;;8206316;28;20515;-72
2021/12/01 05:20:24;;;;;;;4.68;3.55;;;;;;;;;;8206780;28;20278;-72
2021/12/01 05:24:24;;;;;;;4.15;2.83;;;;;;;;;;8206492;28;20035;-72
2021/12/01 05:28:24;;;;;;;3.20;2.67;;;;;;;;;;8207323;28;20266;-72
2021/12/01 05:32:25;;;;;;;3.08;2.50;;;;;;;;;;8205280;28;20967;-71
2021/12/01 05:36:25;;;;;;;2.95;2.65;;;;;;;;;;8203928;28;20632;-72
2021/12/01 05:40:26;;;;;;;6.68;3.15;;;;;;;;;;8205203;28;20803;-71
2021/12/01 05:44:27;;;;;;;5.30;2.75;;;;;;;;;;8204182;28;20109;-72
2021/12/01 05:48:27;;;;;;;3.90;3.08;;;;;;;;;;8204647;28;20894;-72
2021/12/01 05:52:27;;;;;;;4.03;2.50;;;;;;;;;;8204996;28;20084;-72
2021/12/01 05:56:27;;;;;;;4.25;2.72;;;;;;;;;;8206241;28;20154;-71
2021/12/01 06:00:28;;;;;;;6.18;2.78;;;;;;;;;;8202012;28;20070;-72
2021/12/01 06:04:28;;;;;;;4.07;2.60;;;;;;;;;;8204585;28;20026;-72
2021/12/01 06:08:28;;;;;;;4.20;2.50;;;;;;;;;;8204953;28;20050;-72
2021/12/01 06:12:29;;;;;;;2.88;2.60;;;;;;;;;;8205517;28;20023;-72
2021/12/01 06:16:29;;;;;;;7.88;2.63;;;;;;;;;;8202455;28;20149;-72
2021/12/01 06:20:29;;;;;;;2.65;2.28;;;;;;;;;;8204770;28;20484;-71
2021/12/01 06:24:29;;;;;;;2.42;2.22;;;;;;;;;;8207080;28;20034;-72
2021/12/01 06:28:30;;;;;;;1.77;1.67;;;;;;;;;;8214664;28;20054;-72
2021/12/01 06:32:30;;;;;;;3.40;1.90;;;;;;;;;;8213301;28;21028;-71
2021/12/01 06:36:30;;;;;;;2.47;1.75;;;;;;;;;;8214230;28;20066;-71
2021/12/01 06:40:30;;;;;;;2.25;1.92;;;;;;;;;;8213876;28;20369;-71
2021/12/01 06:44:31;;;;;;;1.63;1.52;;;;;;;;;;8213467;28;20023;-72
2021/12/01 06:48:31;;;;;;;3.17;1.50;;;;;;;;;;8214262;28;20061;-72
2021/12/01 06:52:31;;;;;;;1.50;1.40;;;;;;;;;;8215712;28;20826;-72
2021/12/01 06:56:31;;;;;;;1.53;1.43;;;;;;;;;;8213135;28;20027;-72
2021/12/01 07:00:31;;;;;;;1.67;1.48;;;;;;;;;;8214816;28;20281;-72
2021/12/01 07:04:32;;;;;;;1.97;1.77;;;;;;;;;;8215866;28;20031;-71
2021/12/01 07:08:32;;;;;;;1.60;1.20;;;;;;;;;;8214593;28;20333;-71
2021/12/01 07:12:32;;;;;;;1.30;1.20;;;;;;;;;;8214338;28;20472;-71
2021/12/01 07:16:33;;;;;;;1.50;1.40;;;;;;;;;;8211638;28;20041;-71
2021/12/01 07:20:33;;;;;;;1.77;1.20;;;;;;;;;;8213396;28;20314;-71
2021/12/01 07:24:33;;;;;;;2.50;1.20;;;;;;;;;;8215016;28;20034;-71
2021/12/01 07:28:34;;;;;;;1.02;1.02;;;;;;;;;;8215257;28;20027;-71
2021/12/01 07:32:34;;;;;;;1.43;1.20;;;;;;;;;;8212764;28;20042;-71
2021/12/01 07:36:34;;;;;;;1.40;1.30;;;;;;;;;;8211860;28;20258;-71
2021/12/01 07:40:34;;;;;;;2.60;1.10;;;;;;;;;;8209031;28;20286;-71
2021/12/01 07:44:34;;;;;;;1.00;0.90;;;;;;;;;;8208263;28;20030;-71
2021/12/01 07:48:36;;;;;;;0.95;0.95;;;;;;;;;;8209311;28;20546;-71
2021/12/01 07:52:38;;;;;;;2.55;1.20;;;;;;;;;;8209819;28;20019;-71
2021/12/01 07:56:38;;;;;;;1.20;0.90;;;;;;;;;;8208892;28;20046;-71
2021/12/01 08:00:39;;;;;;;0.90;0.90;;;;;;;;;;8208186;28;20034;-71
2021/12/01 08:04:39;;;;;;;2.07;0.93;;;;;;;;;;8206542;28;20022;-71
2021/12/01 08:08:39;;;;;;;0.80;0.80;;;;;;;;;;8209099;28;20945;-71
2021/12/01 08:12:39;;;;;;;0.70;0.70;;;;;;;;;;8209487;28;20035;-71
2021/12/01 08:16:39;;;;;;;0.75;0.75;;;;;;;;;;8207420;28;20070;-71
2021/12/01 08:20:39;;;;;;;0.80;0.80;;;;;;;;;;8209199;28;20061;-71
2021/12/01 08:24:40;;;;;;;0.80;0.80;;;;;;;;;;8206375;28;20032;-71
2021/12/01 08:28:42;;;;;;;0.80;0.80;;;;;;;;;;8206377;28;20029;-71
2021/12/01 08:32:45;;;;;;;0.80;0.80;;;;;;;;;;8205845;28;20035;-71
2021/12/01 08:36:46;;;;;;;0.70;0.70;;;;;;;;;;8208065;28;20026;-71
2021/12/01 08:40:47;;;;;;;1.45;0.90;;;;;;;;;;8206876;28;20171;-71
2021/12/01 08:44:47;;;;;;;1.60;0.60;;;;;;;;;;8208178;28;20040;-71
2021/12/01 08:48:47;;;;;;;0.70;0.70;;;;;;;;;;8205986;28;20492;-71
2021/12/01 08:52:48;;;;;;;0.70;0.70;;;;;;;;;;8207708;28;20027;-71
2021/12/01 08:56:48;;;;;;;0.73;0.73;;;;;;;;;;8207047;28;20034;-71
2021/12/01 09:00:48;;;;;;;0.93;0.70;;;;;;;;;;8205827;28;20035;-71
2021/12/01 09:04:50;;;;;;;0.50;0.50;;;;;;;;;;8207005;28;20019;-71
2021/12/01 09:08:50;;;;;;;0.70;0.63;;;;;;;;;;8206539;28;20027;-71
2021/12/01 09:12:51;;;;;;;1.17;0.70;;;;;;;;;;8206904;28;20018;-71
2021/12/01 09:16:51;;;;;;;0.65;0.65;;;;;;;;;;8204942;28;20038;-71
2021/12/01 09:20:52;;;;;;;0.60;0.60;;;;;;;;;;8207417;28;20038;-71
2021/12/01 09:24:52;;;;;;;1.60;0.70;;;;;;;;;;8205808;28;20031;-71
2021/12/01 09:28:52;;;;;;;0.73;0.70;;;;;;;;;;8205905;28;20026;-71
2021/12/01 09:32:53;;;;;;;0.60;0.60;;;;;;;;;;8205199;28;20118;-71
2021/12/01 09:36:53;;;;;;;1.27;0.50;;;;;;;;;;8206985;28;20484;-71
2021/12/01 09:40:55;;;;;;;0.45;0.45;;;;;;;;;;8205177;28;20093;-71
2021/12/01 09:44:55;;;;;;;3.17;0.75;;;;;;;;;;8218344;28;20977;-71
2021/12/01 09:48:56;;;;;;;0.47;0.47;;;;;;;;;;8204784;28;20494;-71
2021/12/01 09:52:56;;;;;;;1.15;0.40;;;;;;;;;;8206624;28;20069;-72
2021/12/01 09:56:56;;;;;;;0.43;0.40;;;;;;;;;;8204823;28;20377;-71
2021/12/01 10:00:59;;;;;;;0.55;0.55;;;;;;;;;;8202504;28;20129;-71
2021/12/01 10:05:01;;;;;;;0.45;0.45;;;;;;;;;;8204683;28;20679;-71
2021/12/01 10:09:11;;;;;;;0.30;0.30;;;;;;;;;;8205092;28;20444;-71
2021/12/01 10:13:11;;;;;;;0.40;0.40;;;;;;;;;;8206063;28;20033;-71
2021/12/01 10:17:12;;;;;;;0.40;0.40;;;;;;;;;;8203835;28;20792;-71
2021/12/01 10:21:12;;;;;;;0.60;0.35;;;;;;;;;;8205267;28;20031;-71
2021/12/01 10:25:30;;;;;;;0.40;0.40;;;;;;;;;;8204831;28;20033;-71
2021/12/01 10:29:33;;;;;;;0.40;0.40;;;;;;;;;;8204007;28;20141;-71
2021/12/01 10:33:33;;;;;;;0.50;0.50;;;;;;;;;;8205393;28;20980;-71
2021/12/01 10:37:34;;;;;;;0.40;0.40;;;;;;;;;;8204026;28;20097;-71
2021/12/01 10:41:36;;;;;;;0.40;0.40;;;;;;;;;;8203734;28;20121;-71
2021/12/01 10:45:36;;;;;;;0.60;0.47;;;;;;;;;;8203076;28;20062;-71
2021/12/01 10:49:40;;;;;;;0.40;0.40;;;;;;;;;;8204675;28;20034;-71
2021/12/01 10:53:40;;;;;;;0.40;0.40;;;;;;;;;;8204893;28;20027;-71
2021/12/01 10:57:41;;;;;;;0.30;0.30;;;;;;;;;;8205368;28;20495;-71
2021/12/01 11:01:43;;;;;;;0.55;0.50;;;;;;;;;;8202856;28;20358;-71
2021/12/01 11:05:44;;;;;;;0.30;0.30;;;;;;;;;;8204619;28;20027;-72
2021/12/01 11:09:44;;;;;;;0.40;0.40;;;;;;;;;;8205132;28;20026;-71
2021/12/01 11:13:46;;;;;;;0.25;0.25;;;;;;;;;;8210266;28;20037;-71
2021/12/01 11:17:47;;;;;;;0.40;0.40;;;;;;;;;;8208576;28;20523;-71
2021/12/01 11:21:47;;;;;;;0.43;0.35;;;;;;;;;;8209488;28;20420;-71
2021/12/01 11:25:49;;;;;;;0.30;0.30;;;;;;;;;;8210563;28;20038;-71
2021/12/01 11:29:49;;;;;;;0.50;0.50;;;;;;;;;;8209882;28;20395;-71
2021/12/01 11:33:55;;;;;;;0.28;0.28;;;;;;;;;;8208998;28;20157;-71
2021/12/01 11:37:55;;;;;;;0.30;0.30;;;;;;;;;;8209230;28;20062;-71
2021/12/01 11:41:56;;;;;;;0.30;0.30;;;;;;;;;;8209217;28;20030;-71
2021/12/01 11:45:56;;;;;;;0.30;0.30;;;;;;;;;;8209355;28;20830;-72
2021/12/01 11:49:57;;;;;;;0.40;0.40;;;;;;;;;;8210702;28;21041;-71
2021/12/01 11:54:03;;;;;;;0.45;0.40;;;;;;;;;;8209617;28;20064;-71
2021/12/01 11:58:03;;;;;;;0.40;0.40;;;;;;;;;;8209256;28;20041;-71
2021/12/01 12:02:19;;;;;;;1.85;0.60;;;;;;;;;;8207719;28;20055;-71
2021/12/01 12:06:23;;;;;;;0.60;0.60;;;;;;;;;;8209003;28;20112;-71
2021/12/01 12:10:32;;;;;;;0.60;0.60;;;;;;;;;;8208296;28;20027;-71
2021/12/01 12:14:34;;;;;;;0.90;0.90;;;;;;;;;;8208744;28;20030;-71
2021/12/01 12:18:35;;;;;;;0.65;0.60;;;;;;;;;;8207579;28;20134;-71
2021/12/01 12:22:44;;;;;;;0.50;0.50;;;;;;;;;;8205598;28;20114;-71
2021/12/01 12:26:45;;;;;;;0.55;0.55;;;;;;;;;;8205924;28;20019;-71
2021/12/01 12:30:46;;;;;;;0.75;0.60;;;;;;;;;;8204762;28;20034;-71
2021/12/01 12:34:51;;;;;;;0.50;0.50;;;;;;;;;;8209233;28;20042;-71
2021/12/01 12:39:02;;;;;;;0.60;0.60;;;;;;;;;;8206497;28;20701;-71
2021/12/01 12:43:10;;;;;;;0.70;0.70;;;;;;;;;;8207280;28;20038;-71
2021/12/01 12:47:12;;;;;;;0.90;0.90;;;;;;;;;;8206305;28;20031;-71
2021/12/01 12:51:31;;;;;;;1.85;0.50;;;;;;;;;;8207295;28;20034;-71
2021/12/01 12:55:36;;;;;;;0.70;0.50;;;;;;;;;;8205987;28;20030;-71
2021/12/01 12:59:36;;;;;;;1.15;0.70;;;;;;;;;;8206321;28;20037;-71
2021/12/01 13:03:36;;;;;;;0.70;0.70;;;;;;;;;;8206649;28;20066;-71
2021/12/01 13:07:44;;;;;;;1.08;0.50;;;;;;;;;;8207388;28;20026;-71
2021/12/01 13:11:44;;;;;;;0.70;0.70;;;;;;;;;;8206312;28;20513;-71
2021/12/01 13:15:49;;;;;;;0.63;0.63;;;;;;;;;;8205475;28;20115;-71
2021/12/01 13:19:49;;;;;;;;;;;;;;;;;;8206231;28;20039;-71
2021/12/01 13:23:50;;;;;;;0.70;0.70;;;;;;;;;;8203698;28;20458;-71
2021/12/01 13:27:50;;;;;;;0.70;0.70;;;;;;;;;;8206983;28;20088;-71
2021/12/01 13:31:50;;;;;;;0.93;0.85;;;;;;;;;;8203232;28;20042;-71
2021/12/01 13:35:51;;;;;;;1.55;0.75;;;;;;;;;;8206734;28;20086;-71
2021/12/01 13:39:52;;;;;;;0.60;0.60;;;;;;;;;;8206024;28;20098;-71
2021/12/01 13:44:01;;;;;;;0.57;0.57;;;;;;;;;;8204729;28;20023;-71
2021/12/01 13:48:06;;;;;;;1.63;0.68;;;;;;;;;;8204363;28;20038;-71
2021/12/01 13:52:08;;;;;;;0.50;0.50;;;;;;;;;;8204005;28;20046;-71
2021/12/01 13:56:13;;;;;;;0.60;0.60;;;;;;;;;;8201168;28;20531;-71
2021/12/01 14:00:16;;;;;;;0.45;0.45;;;;;;;;;;8198318;28;20108;-71
2021/12/01 14:04:16;;;;;;;0.50;0.50;;;;;;;;;;8203279;28;20038;-70
2021/12/01 14:08:28;;;;;;;0.40;0.40;;;;;;;;;;8204551;28;20026;-71
2021/12/01 14:12:40;;;;;;;0.73;0.40;;;;;;;;;;8203326;28;20133;-71
2021/12/01 14:16:43;;;;;;;0.30;0.30;;;;;;;;;;8204953;28;20519;-71
2021/12/01 14:20:43;;;;;;;0.40;0.40;;;;;;;;;;8205635;28;20030;-71
2021/12/01 14:24:51;;;;;;;0.68;0.68;;;;;;;;;;8203259;28;20022;-71
2021/12/01 14:28:56;;;;;;;0.63;0.60;;;;;;;;;;8202321;28;20845;-71
2021/12/01 14:32:56;;;;;;;0.50;0.50;;;;;;;;;;8201056;28;20035;-71
2021/12/01 14:36:57;;;;;;;0.50;0.50;;;;;;;;;;8202862;28;20042;-71
2021/12/01 14:40:58;;;;;;;0.60;0.60;;;;;;;;;;8204465;28;20027;-71
2021/12/01 14:45:05;;;;;;;0.73;0.73;;;;;;;;;;8204952;28;20530;-71
2021/12/01 14:49:09;;;;;;;1.13;1.00;;;;;;;;;;8209756;28;20154;-71
2021/12/01 14:53:13;;;;;;;0.98;0.90;;;;;;;;;;8208607;28;20031;-70
2021/12/01 14:57:15;;;;;;;0.93;0.90;;;;;;;;;;8207347;28;20114;-71
2021/12/01 15:01:15;;;;;;;0.88;0.77;;;;;;;;;;8208194;28;20046;-71
2021/12/01 15:05:19;;;;;;;0.85;0.70;;;;;;;;;;8205975;28;20023;-71
2021/12/01 15:09:35;;;;;;;0.75;0.75;;;;;;;;;;8207237;28;20046;-71
2021/12/01 15:13:43;;;;;;;0.90;0.90;;;;;;;;;;8202744;28;20164;-71
2021/12/01 15:17:52;;;;;;;0.90;0.90;;;;;;;;;;8205600;28;20523;-71
2021/12/01 15:21:53;;;;;;;0.90;0.80;;;;;;;;;;8206654;28;20031;-71
2021/12/01 15:25:53;;;;;;;0.73;0.73;;;;;;;;;;8205271;28;20039;-71
2021/12/01 15:29:53;;;;;;;0.90;0.75;;;;;;;;;;8206559;28;20624;-73
2021/12/01 15:33:59;;;;;;;0.80;0.80;;;;;;;;;;8204210;28;20062;-68
2021/12/01 15:37:59;;;;;;;0.80;0.80;;;;;;;;;;8205077;28;20419;-67
2021/12/01 15:42:02;;;;;;;0.80;0.80;;;;;;;;;;8220365;28;20027;-68
2021/12/01 15:46:03;;;;;;;1.65;0.80;;;;;;;;;;8204720;28;20666;-71
2021/12/01 15:50:05;;;;;;;0.95;0.90;;;;;;;;;;8206331;28;20035;-71
2021/12/01 15:54:05;;;;;;;2.25;1.00;;;;;;;;;;8205236;28;20508;-71
2021/12/01 15:58:05;;;;;;;1.13;1.02;;;;;;;;;;8203748;28;20054;-72
2021/12/01 16:02:06;;;;;;;1.60;1.08;;;;;;;;;;8202057;28;20039;-72
2021/12/01 16:06:06;;;;;;;3.60;1.00;;;;;;;;;;8204922;28;20030;-72
2021/12/01 16:10:06;;;;;;;4.90;1.20;;;;;;;;;;8205395;28;20026;-71
2021/12/01 16:14:08;;;;;;;2.67;1.23;;;;;;;;;;8205385;28;20298;-71
2021/12/01 16:18:08;;;;;;;2.25;1.02;;;;;;;;;;8204182;28;20070;-73
2021/12/01 16:22:08;;;;;;;1.90;0.82;;;;;;;;;;8200626;28;20042;-72
2021/12/01 16:26:09;;;;;;;1.38;0.82;;;;;;;;;;8201683;28;20424;-72
2021/12/01 16:30:11;;;;;;;1.85;0.70;;;;;;;;;;8201830;28;20512;-72
2021/12/01 16:34:11;;;;;;;0.75;0.70;;;;;;;;;;8205270;28;20038;-72
2021/12/01 16:38:12;;;;;;;1.13;0.57;;;;;;;;;;8203951;28;20053;-72
2021/12/01 16:42:12;;;;;;;1.10;0.60;;;;;;;;;;8203603;28;20568;-72
2021/12/01 16:46:12;;;;;;;0.52;0.50;;;;;;;;;;8202631;28;20125;-72
2021/12/01 16:50:13;;;;;;;0.65;0.60;;;;;;;;;;8203717;28;20105;-72
2021/12/01 16:54:13;;;;;;;0.60;0.60;;;;;;;;;;8202811;28;20038;-72
2021/12/01 16:58:13;;;;;;;2.35;0.60;;;;;;;;;;8203862;28;20026;-72
2021/12/01 17:02:14;;;;;;;0.80;0.63;;;;;;;;;;8201224;28;20039;-72
2021/12/01 17:06:23;;;;;;;2.47;0.70;;;;;;;;;;8201557;28;20671;-72
2021/12/01 17:10:23;;;;;;;0.60;0.60;;;;;;;;;;8201282;28;20084;-72
2021/12/01 17:14:23;;;;;;;0.63;0.50;;;;;;;;;;8201641;28;20030;-72
2021/12/01 17:18:24;;;;;;;0.60;0.60;;;;;;;;;;8201254;28;20035;-72
2021/12/01 17:22:25;;;;;;;1.33;0.60;;;;;;;;;;8202864;28;20031;-72
2021/12/01 17:26:25;;;;;;;0.68;0.60;;;;;;;;;;8201599;28;20026;-72
2021/12/01 17:30:28;;;;;;;1.33;0.60;;;;;;;;;;8201150;28;20278;-72
2021/12/01 17:34:28;;;;;;;0.95;0.70;;;;;;;;;;8201571;28;20561;-73
2021/12/01 17:38:29;;;;;;;0.93;0.60;;;;;;;;;;8201877;28;20042;-72
2021/12/01 17:42:29;;;;;;;5.55;0.80;;;;;;;;;;8201281;28;20113;-72
2021/12/01 17:46:29;;;;;;;3.03;0.90;;;;;;;;;;8201420;28;20062;-73
2021/12/01 17:50:29;;;;;;;5.28;1.23;;;;;;;;;;8201224;28;20086;-72
2021/12/01 17:54:30;;;;;;;9.50;0.95;;;;;;;;;;8200757;28;20197;-73
2021/12/01 17:58:30;;;;;;;4.13;1.08;;;;;;;;;;8201735;28;20047;-73
2021/12/01 18:02:32;;;;;;;1.35;1.05;;;;;;;;;;8200551;28;20053;-71
2021/12/01 18:06:33;;;;;;;5.30;0.95;;;;;;;;;;8201275;28;20030;-72
2021/12/01 18:10:38;;;;;;;3.05;1.10;;;;;;;;;;8198977;28;20019;-72
2021/12/01 18:14:38;;;;;;;1.27;0.80;;;;;;;;;;8202340;28;20042;-72
2021/12/01 18:18:40;;;;;;;1.60;0.90;;;;;;;;;;8201251;28;20046;-72
2021/12/01 18:22:41;;;;;;;3.22;1.05;;;;;;;;;;8197968;28;20031;-72
2021/12/01 18:26:41;;;;;;;1.10;1.00;;;;;;;;;;8198800;28;20037;-72
2021/12/01 18:30:42;;;;;;;1.70;1.00;;;;;;;;;;8199063;28;20035;-73
2021/12/01 18:34:43;;;;;;;1.85;1.05;;;;;;;;;;8198793;28;20018;-72
2021/12/01 18:38:47;;;;;;;1.92;1.70;;;;;;;;;;8202332;28;20027;-72
2021/12/01 18:42:48;;;;;;;2.03;1.10;;;;;;;;;;8202427;28;20034;-72
2021/12/01 18:46:48;;;;;;;2.50;1.23;;;;;;;;;;8203172;28;20771;-72
2021/12/01 18:50:48;;;;;;;4.10;1.17;;;;;;;;;;8202030;28;20065;-72
2021/12/01 18:54:51;;;;;;;1.25;1.15;;;;;;;;;;8202087;28;20711;-72
2021/12/01 18:58:54;;;;;;;2.10;1.45;;;;;;;;;;8203612;28;20373;-73
2021/12/01 19:02:54;;;;;;;1.70;1.60;;;;;;;;;;8202505;28;20434;-72
2021/12/01 19:06:54;;;;;;;3.00;1.55;;;;;;;;;;8201634;28;20066;-72
2021/12/01 19:10:55;;;;;;;1.75;1.60;;;;;;;;;;8202569;28;20030;-72
2021/12/01 19:14:55;;;;;;;2.33;1.80;;;;;;;;;;8202085;28;20102;-72
2021/12/01 19:18:55;;;;;;;3.70;1.80;;;;;;;;;;8201161;28;20633;-72
2021/12/01 19:22:56;;;;;;;3.90;1.58;;;;;;;;;;8200673;28;20092;-72
2021/12/01 19:26:56;;;;;;;4.22;1.90;;;;;;;;;;8200858;28;21102;-72
2021/12/01 19:30:58;;;;;;;2.85;1.90;;;;;;;;;;8203227;28;20103;-72
2021/12/01 19:34:58;;;;;;;5.03;2.33;;;;;;;;;;8208922;28;20543;-72
2021/12/01 19:38:58;;;;;;;4.40;2.03;;;;;;;;;;8206421;28;20146;-72
2021/12/01 19:42:59;;;;;;;2.60;1.90;;;;;;;;;;8208601;28;20035;-72
2021/12/01 19:46:59;;;;;;;2.00;1.48;;;;;;;;;;8206461;28;20271;-71
2021/12/01 19:51:00;;;;;;;2.67;1.58;;;;;;;;;;8207739;28;20357;-72
2021/12/01 19:55:04;;;;;;;2.53;1.50;;;;;;;;;;8207630;28;20058;-71
2021/12/01 19:59:04;;;;;;;1.58;1.40;;;;;;;;;;8207906;28;20058;-73
2021/12/01 20:03:05;;;;;;;2.55;1.10;;;;;;;;;;8203690;28;20089;-71
2021/12/01 20:07:05;;;;;;;2.97;1.30;;;;;;;;;;8208248;28;20030;-71
2021/12/01 20:11:06;;;;;;;2.58;1.30;;;;;;;;;;8205051;28;20023;-71
2021/12/01 20:15:07;;;;;;;4.38;1.83;;;;;;;;;;8206511;28;20035;-72
2021/12/01 20:19:07;;;;;;;4.07;1.95;;;;;;;;;;8207764;28;20023;-71
2021/12/01 20:23:11;;;;;;;3.60;2.28;;;;;;;;;;8195627;28;20069;-71
2021/12/01 20:27:11;;;;;;;4.53;1.73;;;;;;;;;;8204446;28;20046;-72
2021/12/01 20:31:12;;;;;;;2.22;1.00;;;;;;;;;;8205826;28;20042;-71
2021/12/01 20:35:14;;;;;;;1.45;1.00;;;;;;;;;;8205252;28;20027;-72
2021/12/01 20:39:16;;;;;;;2.53;1.05;;;;;;;;;;8207099;28;20025;-71
2021/12/01 20:43:16;;;;;;;1.85;1.00;;;;;;;;;;8204172;28;20645;-71
2021/12/01 21:00:05;;;;;;;2.15;0.90;;;;;;;;;;8204413;28;20027;-70
2021/12/01 21:04:09;;;;;;;1.95;1.15;;;;;;;;;;8206693;28;20101;-70
2021/12/01 21:08:11;;;;;;;5.28;1.27;;;;;;;;;;8205391;28;20037;-70
2021/12/01 21:12:14;;;;;;;3.63;1.35;;;;;;;;;;8206021;28;20035;-70
2021/12/01 21:16:14;;;;;;;4.47;1.40;;;;;;;;;;8201661;28;20035;-70
2021/12/01 21:20:15;;;;;;;4.40;1.90;;;;;;;;;;8203230;28;20404;-70
2021/12/01 21:24:16;;;;;;;1.58;0.98;;;;;;;;;;8205232;28;20679;-70
2021/12/01 21:28:18;;;;;;;1.65;1.00;;;;;;;;;;8204666;28;20035;-70
2021/12/01 21:32:19;;;;;;;3.25;1.27;;;;;;;;;;8203364;28;20042;-70
2021/12/01 21:36:24;;;;;;;2.90;1.45;;;;;;;;;;8220331;28;20041;-70
2021/12/01 21:40:24;;;;;;;2.15;1.20;;;;;;;;;;8202536;28;20031;-71
2021/12/01 21:44:25;;;;;;;4.13;1.20;;;;;;;;;;8193783;28;20027;-71
2021/12/01 21:48:26;;;;;;;3.47;1.27;;;;;;;;;;8194129;28;20274;-72
2021/12/01 21:52:26;;;;;;;6.20;1.67;;;;;;;;;;8197318;28;20035;-72
2021/12/01 21:56:27;;;;;;;5.82;1.50;;;;;;;;;;8201549;28;20041;-72
2021/12/01 22:00:28;;;;;;;3.78;1.33;;;;;;;;;;8199680;28;20949;-72
2021/12/01 22:04:30;;;;;;;3.83;1.60;;;;;;;;;;8202694;28;20038;-72
2021/12/01 22:08:31;;;;;;;4.90;1.65;;;;;;;;;;8202300;28;20381;-72
2021/12/01 22:12:31;;;;;;;3.70;1.67;;;;;;;;;;8202481;28;20173;-72
2021/12/01 22:16:32;;;;;;;3.87;1.67;;;;;;;;;;8202424;28;20027;-72
2021/12/01 22:20:34;;;;;;;3.65;1.40;;;;;;;;;;8202537;28;20288;-72
2021/12/01 22:24:39;;;;;;;6.22;1.80;;;;;;;;;;8201823;28;20491;-72
2021/12/01 22:28:43;;;;;;;2.83;1.60;;;;;;;;;;8203226;28;20089;-72
2021/12/01 22:32:44;;;;;;;4.97;1.70;;;;;;;;;;8201368;28;20181;-72
2021/12/01 22:36:48;;;;;;;4.07;1.85;;;;;;;;;;8201945;28;20918;-72
2021/12/01 22:40:49;;;;;;;3.92;1.63;;;;;;;;;;8202246;28;20027;-71
2021/12/01 22:44:49;;;;;;;4.38;1.70;;;;;;;;;;8200780;28;20041;-71
2021/12/01 22:48:50;;;;;;;5.63;1.52;;;;;;;;;;8203529;28;20042;-71
2021/12/01 22:52:51;;;;;;;6.88;2.15;;;;;;;;;;8202266;28;20110;-72
2021/12/01 22:56:54;;;;;;;4.65;1.50;;;;;;;;;;8206507;28;20089;-72
2021/12/01 23:00:55;;;;;;;5.63;1.77;;;;;;;;;;8202662;28;20149;-72
2021/12/01 23:04:56;;;;;;;7.45;2.28;;;;;;;;;;8206036;28;20492;-72
2021/12/01 23:08:56;;;;;;;9.77;2.40;;;;;;;;;;8208064;28;20400;-72
2021/12/01 23:12:57;;;;;;;12.32;2.83;;;;;;;;;;8212317;28;20030;-71
2021/12/01 23:16:58;;;;;;;6.22;1.85;;;;;;;;;;8210574;28;20070;-72
2021/12/01 23:20:59;;;;;;;7.38;2.00;;;;;;;;;;8211397;28;20026;-72
2021/12/01 23:29:18;;;;;;;6.03;2.00;;;;;;;;;;8209127;28;20026;-72
2021/12/01 23:33:29;;;;;;;3.38;2.00;;;;;;;;;;8210158;28;20035;-72
2021/12/01 23:37:29;;;;;;;5.32;2.03;;;;;;;;;;8210392;28;20105;-72
2021/12/01 23:41:29;;;;;;;4.47;1.70;;;;;;;;;;8209477;28;20039;-72
2021/12/01 23:54:18;;;;;;;3.25;1.60;;;;;;;;;;8210437;28;20033;-72
2021/12/01 23:58:18;;;;;;;4.85;1.58;;;;;;;;;;8210495;28;20554;-72
